Terminal Aerodrome Forecast
Issued by NWS

Home | Current Version | Previous Version | Text Only | Print | Product List | Glossary On
Versions: 1 2 3 4 5 6 7 8 9 10 11 12 13 14 15 16 17 18
000
FTUS43 KILX 280240 AAA
TAFDEC
TAF AMD
KDEC 280240Z 2803/2824 36010KT 6SM BR SCT006 OVC015
      TEMPO 2803/2806 4SM BR BKN006
     FM280600 36008KT 5SM BR OVC011
     FM281000 01006KT 4SM BR OVC010
     FM281600 03007KT P6SM OVC020=

USA.gov is the U.S. government's official web portal to all federal, state and local government web resources and services.